createdAt,value
2022-08-23T00:00:31.971Z,0
2022-08-23T00:01:32.176Z,0
2022-08-23T00:02:32.226Z,0
2022-08-23T00:03:32.140Z,0
2022-08-23T00:04:34.658Z,0
2022-08-23T00:05:32.130Z,0
2022-08-23T00:06:32.137Z,0
2022-08-23T00:07:36.325Z,0
2022-08-23T00:08:31.784Z,0
2022-08-23T00:09:32.136Z,0
2022-08-23T00:10:32.170Z,0
2022-08-23T00:11:32.118Z,0
2022-08-23T00:12:31.819Z,0
2022-08-23T00:13:47.397Z,0
2022-08-23T00:14:32.212Z,0
2022-08-23T00:15:32.168Z,0
2022-08-23T00:16:31.817Z,0
2022-08-23T00:17:34.678Z,0
2022-08-23T00:18:32.237Z,0
2022-08-23T00:19:32.136Z,0
2022-08-23T00:20:31.820Z,0
2022-08-23T00:21:32.363Z,0
2022-08-23T00:22:32.129Z,0
2022-08-23T00:23:32.154Z,0
2022-08-23T00:24:31.805Z,0
2022-08-23T00:25:32.150Z,0
2022-08-23T00:26:32.131Z,0
2022-08-23T00:27:32.099Z,0
2022-08-23T00:28:31.978Z,0
2022-08-23T00:29:32.150Z,0
2022-08-23T00:30:32.127Z,0
2022-08-23T00:31:32.139Z,0
2022-08-23T00:32:31.799Z,0
2022-08-23T00:33:32.137Z,0
2022-08-23T00:34:32.110Z,0
2022-08-23T00:35:32.129Z,0
2022-08-23T00:36:32.062Z,0
2022-08-23T00:37:32.162Z,0
2022-08-23T00:38:34.971Z,0
2022-08-23T00:39:32.146Z,0
2022-08-23T00:40:31.770Z,0
2022-08-23T00:41:32.097Z,0
2022-08-23T00:42:32.124Z,0
2022-08-23T00:43:32.156Z,0
2022-08-23T00:44:31.795Z,0
2022-08-23T00:45:32.242Z,0
2022-08-23T00:46:32.223Z,0
2022-08-23T00:47:32.244Z,0
2022-08-23T00:48:31.825Z,0
2022-08-23T00:49:32.199Z,0
2022-08-23T00:50:32.142Z,0
2022-08-23T00:51:32.134Z,0
2022-08-23T00:52:31.793Z,0
2022-08-23T00:53:32.135Z,0
2022-08-23T00:54:32.146Z,0
2022-08-23T00:55:32.106Z,0
2022-08-23T00:56:31.759Z,0
2022-08-23T00:57:32.106Z,0
2022-08-23T00:58:32.112Z,0
2022-08-23T00:59:32.132Z,0
2022-08-23T01:00:31.803Z,0
2022-08-23T01:01:32.151Z,0
2022-08-23T01:02:32.128Z,0
2022-08-23T01:03:38.723Z,0
2022-08-23T01:04:31.777Z,0
2022-08-23T01:05:32.144Z,0
2022-08-23T01:06:32.189Z,0
2022-08-23T01:07:32.134Z,0
2022-08-23T01:08:31.743Z,0
2022-08-23T01:09:32.123Z,0
2022-08-23T01:10:32.179Z,0
2022-08-23T01:11:32.125Z,0
2022-08-23T01:12:32.735Z,0
2022-08-23T01:13:32.087Z,0
2022-08-23T01:14:32.185Z,0
2022-08-23T01:15:32.195Z,0
2022-08-23T01:16:31.738Z,0
2022-08-23T01:17:32.099Z,0
2022-08-23T01:18:32.139Z,0
2022-08-23T01:19:32.123Z,0
2022-08-23T01:20:31.758Z,0
2022-08-23T01:21:32.130Z,0
2022-08-23T01:22:32.130Z,0
2022-08-23T01:23:32.140Z,0
2022-08-23T01:25:06.132Z,0
2022-08-23T01:25:32.156Z,0
2022-08-23T01:26:32.137Z,0
2022-08-23T01:27:32.177Z,0
2022-08-23T01:28:31.707Z,0
2022-08-23T01:29:32.119Z,0
2022-08-23T01:30:32.123Z,0
2022-08-23T01:31:32.134Z,0
2022-08-23T01:32:31.720Z,0
2022-08-23T01:33:32.117Z,0
2022-08-23T01:34:32.404Z,0
2022-08-23T01:35:32.130Z,0
2022-08-23T01:36:31.736Z,0
2022-08-23T01:37:32.093Z,0
2022-08-23T01:38:32.743Z,0
2022-08-23T01:39:32.183Z,0
2022-08-23T01:40:31.800Z,0
2022-08-23T01:41:32.281Z,0
2022-08-23T01:42:32.298Z,0
2022-08-23T01:43:32.267Z,0
2022-08-23T01:44:31.809Z,0
2022-08-23T01:45:32.271Z,0
2022-08-23T01:46:32.268Z,0
2022-08-23T01:47:32.225Z,0
2022-08-23T01:48:31.706Z,0
2022-08-23T01:49:32.127Z,0
2022-08-23T01:50:32.157Z,0
2022-08-23T01:51:32.133Z,0
2022-08-23T01:52:31.694Z,0
2022-08-23T01:53:32.147Z,0
2022-08-23T01:54:32.104Z,0
2022-08-23T01:55:32.796Z,0
2022-08-23T01:56:38.270Z,0
2022-08-23T01:57:32.234Z,0
2022-08-23T01:58:32.142Z,0
2022-08-23T01:59:32.118Z,0
2022-08-23T02:00:31.638Z,0
2022-08-23T02:01:32.110Z,0
2022-08-23T02:02:32.114Z,0
2022-08-23T02:03:32.136Z,0
2022-08-23T02:04:31.682Z,0
2022-08-23T02:05:32.184Z,0
2022-08-23T02:06:32.142Z,0
2022-08-23T02:07:32.124Z,0
2022-08-23T02:08:31.710Z,0
2022-08-23T02:09:32.129Z,0
2022-08-23T02:10:32.121Z,0
2022-08-23T02:11:32.138Z,0
2022-08-23T02:12:31.655Z,0
2022-08-23T02:13:32.085Z,0
2022-08-23T02:14:32.108Z,0
2022-08-23T02:15:32.111Z,0
2022-08-23T02:16:31.679Z,0
2022-08-23T02:17:32.114Z,0
2022-08-23T02:18:32.158Z,0
2022-08-23T02:19:32.187Z,0
2022-08-23T02:20:31.673Z,0
2022-08-23T02:21:32.099Z,0
2022-08-23T02:22:32.122Z,0
2022-08-23T02:23:32.153Z,0
2022-08-23T02:24:31.845Z,0
2022-08-23T02:25:32.107Z,0
2022-08-23T02:26:32.117Z,0
2022-08-23T02:27:32.127Z,0
2022-08-23T02:28:31.635Z,0
2022-08-23T02:29:32.117Z,0
2022-08-23T02:30:32.120Z,0
2022-08-23T02:31:32.100Z,0
2022-08-23T02:32:31.578Z,0
2022-08-23T02:33:32.098Z,0
2022-08-23T02:34:32.129Z,0
2022-08-23T02:35:32.326Z,0
2022-08-23T02:36:31.592Z,0
2022-08-23T02:37:32.180Z,0
2022-08-23T02:38:32.253Z,0
2022-08-23T02:39:32.127Z,0
2022-08-23T02:40:31.626Z,0
2022-08-23T02:41:32.088Z,0
2022-08-23T02:42:32.113Z,0
2022-08-23T02:43:32.150Z,0
2022-08-23T02:44:31.581Z,0
2022-08-23T02:45:32.254Z,0
2022-08-23T02:46:32.121Z,0
2022-08-23T02:47:32.123Z,0
2022-08-23T02:48:31.573Z,0
2022-08-23T02:49:32.134Z,0
2022-08-23T02:50:32.105Z,0
2022-08-23T02:51:32.118Z,0
2022-08-23T02:52:31.579Z,0
2022-08-23T02:53:32.142Z,0
2022-08-23T02:54:32.110Z,0
2022-08-23T02:55:32.123Z,0
2022-08-23T02:56:31.581Z,0
2022-08-23T02:57:32.118Z,0
2022-08-23T02:58:32.089Z,0
2022-08-23T02:59:32.133Z,0
2022-08-23T03:00:31.588Z,0
2022-08-23T03:01:32.125Z,0
2022-08-23T03:02:32.232Z,0
2022-08-23T03:03:32.118Z,0
2022-08-23T03:04:31.536Z,0
2022-08-23T03:05:32.123Z,0
2022-08-23T03:06:32.143Z,0
2022-08-23T03:07:32.111Z,0
2022-08-23T03:08:31.584Z,0
2022-08-23T03:09:32.125Z,0
2022-08-23T03:10:32.199Z,0
2022-08-23T03:11:32.247Z,0
2022-08-23T03:12:31.689Z,0
2022-08-23T03:13:32.257Z,0
2022-08-23T03:14:32.359Z,0
2022-08-23T03:15:32.338Z,0
2022-08-23T03:16:31.594Z,0
2022-08-23T03:17:32.324Z,0
2022-08-23T03:18:32.209Z,0
2022-08-23T03:19:32.336Z,0
2022-08-23T03:20:31.656Z,0
2022-08-23T03:21:32.507Z,0
2022-08-23T03:22:32.144Z,0
2022-08-23T03:23:32.282Z,0
2022-08-23T03:24:31.763Z,0
2022-08-23T03:25:32.228Z,0
2022-08-23T03:26:32.110Z,0
2022-08-23T03:27:32.232Z,0
2022-08-23T03:28:31.676Z,0
2022-08-23T03:29:32.154Z,0
2022-08-23T03:30:32.183Z,0
2022-08-23T03:31:32.113Z,0
2022-08-23T03:32:31.578Z,0
2022-08-23T03:33:32.111Z,0
2022-08-23T03:34:32.126Z,0
2022-08-23T03:35:32.121Z,0.36
2022-08-23T03:36:31.477Z,0.36
2022-08-23T03:37:32.122Z,0.36
2022-08-23T03:38:32.986Z,0.36
2022-08-23T03:39:32.240Z,1.22
2022-08-23T03:40:31.575Z,1.22
2022-08-23T03:41:32.157Z,1.22
2022-08-23T03:42:32.238Z,1.71
2022-08-23T03:43:32.080Z,2.08
2022-08-23T03:44:31.534Z,1.71
2022-08-23T03:45:32.109Z,1.22
2022-08-23T03:46:34.066Z,2.08
2022-08-23T03:47:32.163Z,2.08
2022-08-23T03:48:31.496Z,2.08
2022-08-23T03:49:32.106Z,2.08
2022-08-23T03:50:32.128Z,2.94
2022-08-23T03:51:32.109Z,2.57
2022-08-23T03:52:31.513Z,2.57
2022-08-23T03:53:32.147Z,3.43
2022-08-23T03:54:32.112Z,2.94
2022-08-23T03:55:32.115Z,3.43
2022-08-23T03:56:31.510Z,4.28
2022-08-23T03:57:32.112Z,3.43
2022-08-23T03:58:32.099Z,3.43
2022-08-23T03:59:32.111Z,3.43
2022-08-23T04:00:31.564Z,3.43
2022-08-23T04:01:32.223Z,4.28
2022-08-23T04:02:32.150Z,4.28
2022-08-23T04:03:32.073Z,4.77
2022-08-23T04:04:31.514Z,4.28
2022-08-23T04:05:33.136Z,5.14
2022-08-23T04:06:32.113Z,5.14
2022-08-23T04:07:32.123Z,4.28
2022-08-23T04:08:33.540Z,5.14
2022-08-23T04:09:32.088Z,5.63
2022-08-23T04:10:32.108Z,5.99
2022-08-23T04:11:32.065Z,5.63
2022-08-23T04:12:31.489Z,5.99
2022-08-23T04:13:32.114Z,5.99
2022-08-23T04:14:32.178Z,6.85
2022-08-23T04:15:32.074Z,7.7
2022-08-23T04:16:31.491Z,8.19
2022-08-23T04:17:32.706Z,8.56
2022-08-23T04:18:32.093Z,8.56
2022-08-23T04:19:32.116Z,9.05
2022-08-23T04:20:31.448Z,9.54
2022-08-23T04:21:32.140Z,9.54
2022-08-23T04:22:32.100Z,9.54
2022-08-23T04:23:32.070Z,9.91
2022-08-23T04:24:31.425Z,11.25
2022-08-23T04:25:34.223Z,11.62
2022-08-23T04:26:32.128Z,11.62
2022-08-23T04:27:32.088Z,12.48
2022-08-23T04:28:31.464Z,13.82
2022-08-23T04:29:33.943Z,12.97
2022-08-23T04:30:32.107Z,13.33
2022-08-23T04:31:34.577Z,14.31
2022-08-23T04:32:31.472Z,14.31
2022-08-23T04:33:32.094Z,15.17
2022-08-23T04:34:32.103Z,15.17
2022-08-23T04:35:32.101Z,16.02
2022-08-23T04:36:31.451Z,16.39
2022-08-23T04:37:32.105Z,17.25
2022-08-23T04:38:32.103Z,17.73
2022-08-23T04:39:32.115Z,18.6
2022-08-23T04:40:31.514Z,19.08
2022-08-23T04:41:32.102Z,19.94
2022-08-23T04:42:32.110Z,20.31
2022-08-23T04:43:32.106Z,20.8
2022-08-23T04:44:31.427Z,22.02
2022-08-23T04:45:32.119Z,21.65
2022-08-23T04:46:32.109Z,21.65
2022-08-23T04:47:32.078Z,20.8
2022-08-23T04:48:31.405Z,21.65
2022-08-23T04:49:32.127Z,20.8
2022-08-23T04:50:32.095Z,20.31
2022-08-23T04:51:32.100Z,19.08
2022-08-23T04:52:31.378Z,19.08
2022-08-23T04:53:32.088Z,16.88
2022-08-23T04:54:32.127Z,16.88
2022-08-23T04:55:32.495Z,17.25
2022-08-23T04:56:31.377Z,16.39
2022-08-23T04:57:32.114Z,17.25
2022-08-23T04:58:32.121Z,16.39
2022-08-23T04:59:32.131Z,16.88
2022-08-23T05:00:31.469Z,17.25
2022-08-23T05:01:32.217Z,18.11
2022-08-23T05:02:32.093Z,19.08
2022-08-23T05:03:32.137Z,19.45
2022-08-23T05:04:31.399Z,21.16
2022-08-23T05:05:32.096Z,22.02
2022-08-23T05:06:32.093Z,22.87
2022-08-23T05:07:42.392Z,24.22
2022-08-23T05:08:31.392Z,25.56
2022-08-23T05:09:32.123Z,25.94
2022-08-23T05:10:32.082Z,26.79
2022-08-23T05:11:32.108Z,26.79
2022-08-23T05:12:32.098Z,27.65
2022-08-23T05:13:32.742Z,28.63
2022-08-23T05:14:32.107Z,28.14
2022-08-23T05:15:32.116Z,28.99
2022-08-23T05:16:31.373Z,30.34
2022-08-23T05:17:32.197Z,31.19
2022-08-23T05:18:32.105Z,32.42
2022-08-23T05:19:32.104Z,34.25
2022-08-23T05:20:31.373Z,35.11
2022-08-23T05:21:32.147Z,35.11
2022-08-23T05:22:32.121Z,34.25
2022-08-23T05:23:32.532Z,34.62
2022-08-23T05:24:32.129Z,34.25
2022-08-23T05:25:32.088Z,33.76
2022-08-23T05:26:32.091Z,32.9
2022-08-23T05:27:32.088Z,32.42
2022-08-23T05:28:32.122Z,32.42
2022-08-23T05:29:32.102Z,32.9
2022-08-23T05:30:32.175Z,32.42
2022-08-23T05:31:32.129Z,32.05
2022-08-23T05:32:33.666Z,32.05
2022-08-23T05:33:32.124Z,31.56
2022-08-23T05:34:32.102Z,31.56
2022-08-23T05:35:32.122Z,29.85
2022-08-23T05:36:32.142Z,30.34
2022-08-23T05:37:32.102Z,29.85
2022-08-23T05:38:32.094Z,29.85
2022-08-23T05:39:36.023Z,28.99
2022-08-23T05:40:32.161Z,29.85
2022-08-23T05:41:35.150Z,29.48
2022-08-23T05:42:32.064Z,29.48
2022-08-23T05:43:32.169Z,30.7
2022-08-23T05:44:36.533Z,30.7
2022-08-23T05:45:32.221Z,31.19
2022-08-23T05:46:32.088Z,31.56
2022-08-23T05:47:33.752Z,31.56
2022-08-23T05:48:32.073Z,32.42
2022-08-23T05:49:32.064Z,33.39
2022-08-23T05:50:32.138Z,34.25
2022-08-23T05:51:32.173Z,34.62
2022-08-23T05:52:32.095Z,35.11
2022-08-23T05:53:32.074Z,35.48
2022-08-23T05:54:32.122Z,36.33
2022-08-23T05:55:35.025Z,36.82
2022-08-23T05:56:32.104Z,37.68
2022-08-23T05:57:32.196Z,39.39
2022-08-23T05:58:32.127Z,40.73
2022-08-23T05:59:32.137Z,43.31
2022-08-23T06:00:37.963Z,45.02
2022-08-23T06:01:32.295Z,48.07
2022-08-23T06:02:32.078Z,50.28
2022-08-23T06:03:32.104Z,52.48
2022-08-23T06:04:32.094Z,55.05
2022-08-23T06:05:32.075Z,55.41
2022-08-23T06:06:37.499Z,57.25
2022-08-23T06:07:32.095Z,56.76
2022-08-23T06:08:32.138Z,54.56
2022-08-23T06:09:32.081Z,54.56
2022-08-23T06:10:32.156Z,55.05
2022-08-23T06:11:32.149Z,51.99
2022-08-23T06:12:32.094Z,50.65
2022-08-23T06:13:32.063Z,49.42
2022-08-23T06:14:32.309Z,47.22
2022-08-23T06:15:32.170Z,46.73
2022-08-23T06:16:32.092Z,46.73
2022-08-23T06:17:32.084Z,46.36
2022-08-23T06:18:32.073Z,47.22
2022-08-23T06:19:32.087Z,46.73
2022-08-23T06:20:32.252Z,47.71
2022-08-23T06:21:32.081Z,48.07
2022-08-23T06:22:32.102Z,49.79
2022-08-23T06:23:32.105Z,49.79
2022-08-23T06:24:32.091Z,51.5
2022-08-23T06:25:32.087Z,51.5
2022-08-23T06:26:32.121Z,51.99
2022-08-23T06:27:32.105Z,52.48
2022-08-23T06:28:32.139Z,51.99
2022-08-23T06:29:32.091Z,51.14
2022-08-23T06:30:32.125Z,51.99
2022-08-23T06:31:32.135Z,51.5
2022-08-23T06:32:32.213Z,51.5
2022-08-23T06:33:32.141Z,52.48
2022-08-23T06:34:32.112Z,52.85
2022-08-23T06:35:38.912Z,53.34
2022-08-23T06:36:32.115Z,54.56
2022-08-23T06:37:32.099Z,55.05
2022-08-23T06:38:32.149Z,56.76
2022-08-23T06:39:35.586Z,58.11
2022-08-23T06:40:32.073Z,58.97
2022-08-23T06:41:32.071Z,59.82
2022-08-23T06:42:38.542Z,60.19
2022-08-23T06:43:32.094Z,60.68
2022-08-23T06:44:32.090Z,60.68
2022-08-23T06:45:35.032Z,62.02
2022-08-23T06:46:32.173Z,62.02
2022-08-23T06:47:32.114Z,61.53
2022-08-23T06:48:32.062Z,61.17
2022-08-23T06:49:32.329Z,60.68
2022-08-23T06:50:32.600Z,60.19
2022-08-23T06:51:32.148Z,60.19
2022-08-23T06:52:32.073Z,60.19
2022-08-23T06:53:32.108Z,61.17
2022-08-23T06:54:32.114Z,62.02
2022-08-23T06:55:32.079Z,63.73
2022-08-23T06:56:32.209Z,64.1
2022-08-23T06:57:32.101Z,64.59
2022-08-23T06:58:32.111Z,67.65
2022-08-23T06:59:32.102Z,70.22
2022-08-23T07:00:32.754Z,72.79
2022-08-23T07:01:44.669Z,73.65
2022-08-23T07:02:32.164Z,75.48
2022-08-23T07:03:32.094Z,76.7
2022-08-23T07:04:32.057Z,75.85
2022-08-23T07:05:32.143Z,74.5
2022-08-23T07:06:32.112Z,74.14
2022-08-23T07:07:39.607Z,72.79
2022-08-23T07:08:32.077Z,72.79
2022-08-23T07:09:32.078Z,73.28
2022-08-23T07:10:32.102Z,75.85
2022-08-23T07:11:32.084Z,79.76
2022-08-23T07:12:32.099Z,83.68
2022-08-23T07:13:32.091Z,86.73
2022-08-23T07:14:32.090Z,94.07
2022-08-23T07:15:32.097Z,95.79
2022-08-23T07:16:32.176Z,95.42
2022-08-23T07:17:32.103Z,91.02
2022-08-23T07:18:32.091Z,87.96
2022-08-23T07:19:32.094Z,87.1
2022-08-23T07:20:32.101Z,81.1
2022-08-23T07:21:32.100Z,78.9
2022-08-23T07:22:32.144Z,76.7
2022-08-23T07:23:32.075Z,76.34
2022-08-23T07:24:33.578Z,77.19
2022-08-23T07:25:32.144Z,81.1
2022-08-23T07:26:32.102Z,85.39
2022-08-23T07:27:32.129Z,93.22
2022-08-23T07:28:32.102Z,105.33
2022-08-23T07:29:32.098Z,109.24
2022-08-23T07:30:32.107Z,105.82
2022-08-23T07:31:32.140Z,109.73
2022-08-23T07:32:32.060Z,117.07
2022-08-23T07:33:32.100Z,171.76
2022-08-23T07:34:32.100Z,159.16
2022-08-23T07:35:34.650Z,111.82
2022-08-23T07:36:32.275Z,101.9
2022-08-23T07:37:32.264Z,99.34
2022-08-23T07:38:32.073Z,95.79
2022-08-23T07:39:32.078Z,89.31
2022-08-23T07:40:36.813Z,93.22
2022-08-23T07:41:32.839Z,92.36
2022-08-23T07:42:32.070Z,91.51
2022-08-23T07:43:32.074Z,87.96
2022-08-23T07:44:32.100Z,88.82
2022-08-23T07:45:32.086Z,87.1
2022-08-23T07:46:32.137Z,96.27
2022-08-23T07:47:32.060Z,91.51
2022-08-23T07:48:53.111Z,72.79
2022-08-23T07:49:32.160Z,71.93
2022-08-23T07:50:32.076Z,73.65
2022-08-23T07:51:32.118Z,69.36
2022-08-23T07:52:32.114Z,69.73
2022-08-23T07:53:32.088Z,71.07
2022-08-23T07:54:32.073Z,73.65
2022-08-23T07:55:32.066Z,72.79
2022-08-23T07:56:34.217Z,73.28
2022-08-23T07:57:35.169Z,74.5
2022-08-23T07:58:39.124Z,75.85
2022-08-23T07:59:43.166Z,82.33
2022-08-23T08:00:47.168Z,84.04
2022-08-23T08:01:51.235Z,91.51
2022-08-23T08:02:55.190Z,97.13
2022-08-23T08:03:59.189Z,136.16
2022-08-23T08:05:03.156Z,99.34
2022-08-23T08:06:07.098Z,105.82
2022-08-23T08:07:19.167Z,85.02
2022-08-23T08:08:15.142Z,80.62
2022-08-23T08:09:19.201Z,80.25
2022-08-23T08:10:23.142Z,88.45
2022-08-23T08:11:29.685Z,82.33
2022-08-23T08:12:31.130Z,83.19
2022-08-23T08:13:32.158Z,85.02
2022-08-23T08:14:32.117Z,92.36
2022-08-23T08:15:32.113Z,98.36
2022-08-23T08:16:32.108Z,149.12
2022-08-23T08:17:32.076Z,99.7
2022-08-23T08:18:32.097Z,102.27
2022-08-23T08:19:32.084Z,101.9
2022-08-23T08:20:32.108Z,114.51
2022-08-23T08:21:32.058Z,132.73
2022-08-23T08:22:32.072Z,147.9
2022-08-23T08:23:32.187Z,140.07
2022-08-23T08:24:32.105Z,132.24
2022-08-23T08:25:32.112Z,127.47
2022-08-23T08:26:32.109Z,130.53
2022-08-23T08:27:32.073Z,170.05
2022-08-23T08:28:32.080Z,264.61
2022-08-23T08:29:32.106Z,186.93
2022-08-23T08:30:32.079Z,182.15
2022-08-23T08:31:32.317Z,239.78
2022-08-23T08:32:32.091Z,184.73
2022-08-23T08:33:34.368Z,220.32
2022-08-23T08:34:32.088Z,184.36
2022-08-23T08:35:32.059Z,254.21
2022-08-23T08:36:32.076Z,148.76
2022-08-23T08:37:32.080Z,142.27
2022-08-23T08:38:32.117Z,140.44
2022-08-23T08:39:32.089Z,173.47
2022-08-23T08:40:32.066Z,153.9
2022-08-23T08:41:32.104Z,155.73
2022-08-23T08:42:32.084Z,170.05
2022-08-23T08:43:32.090Z,163.44
2022-08-23T08:44:32.070Z,140.44
2022-08-23T08:45:32.074Z,144.85
2022-08-23T08:46:32.129Z,148.27
2022-08-23T08:47:32.088Z,151.82
2022-08-23T08:48:32.069Z,174.33
2022-08-23T08:49:32.074Z,171.76
2022-08-23T08:50:32.065Z,187.29
2022-08-23T08:51:32.153Z,156.95
2022-08-23T08:52:32.532Z,147.41
2022-08-23T08:53:32.084Z,142.64
2022-08-23T08:54:32.180Z,153.9
2022-08-23T08:55:32.215Z,157.44
2022-08-23T08:56:32.669Z,153.53
2022-08-23T08:57:32.073Z,132.24
2022-08-23T08:58:32.069Z,125.76
2022-08-23T08:59:32.063Z,123.19
2022-08-23T09:00:32.077Z,119.27
2022-08-23T09:01:32.189Z,118.42
2022-08-23T09:02:33.344Z,117.93
2022-08-23T09:03:32.240Z,120.13
2022-08-23T09:04:32.115Z,125.76
2022-08-23T09:05:32.181Z,128.33
2022-08-23T09:06:32.077Z,140.93
2022-08-23T09:07:32.054Z,140.93
2022-08-23T09:08:32.070Z,139.58
2022-08-23T09:09:32.092Z,151.82
2022-08-23T09:10:32.084Z,144.85
2022-08-23T09:11:32.074Z,141.42
2022-08-23T09:12:32.077Z,154.39
2022-08-23T09:13:32.074Z,170.05
2022-08-23T09:14:32.129Z,148.76
2022-08-23T09:15:32.235Z,172.12
2022-08-23T09:16:32.059Z,238.07
2022-08-23T09:17:32.076Z,231.58
2022-08-23T09:18:32.060Z,143.5
2022-08-23T09:19:32.066Z,118.42
2022-08-23T09:20:33.357Z,114.87
2022-08-23T09:21:32.094Z,115.73
2022-08-23T09:22:32.086Z,117.07
2022-08-23T09:23:32.078Z,113.65
2022-08-23T09:24:32.057Z,111.82
2022-08-23T09:25:32.102Z,115.73
2022-08-23T09:26:32.101Z,127.47
2022-08-23T09:27:32.917Z,122.34
2022-08-23T09:28:32.066Z,120.5
2022-08-23T09:29:32.135Z,117.93
2022-08-23T09:30:32.198Z,116.22
2022-08-23T09:31:35.743Z,118.42
2022-08-23T09:32:32.083Z,125.76
2022-08-23T09:33:32.057Z,132.73
2022-08-23T09:34:32.084Z,155.73
2022-08-23T09:35:32.089Z,141.42
2022-08-23T09:36:32.062Z,145.7
2022-08-23T09:37:32.141Z,151.33
2022-08-23T09:38:32.080Z,182.15
2022-08-23T09:39:32.089Z,173.47
2022-08-23T09:40:32.063Z,177.39
2022-08-23T09:41:32.119Z,198.67
2022-08-23T09:42:32.068Z,183.87
2022-08-23T09:43:32.071Z,199.9
2022-08-23T09:44:32.075Z,180.44
2022-08-23T09:45:35.338Z,188.64
2022-08-23T09:46:32.248Z,172.61
2022-08-23T09:47:32.074Z,167.85
2022-08-23T09:48:32.055Z,171.27
2022-08-23T09:49:32.072Z,166.99
2022-08-23T09:50:32.104Z,162.22
2022-08-23T09:51:32.047Z,164.78
2022-08-23T09:52:32.034Z,168.21
2022-08-23T09:53:32.055Z,169.56
2022-08-23T09:54:32.090Z,179.95
2022-08-23T09:55:32.149Z,177.39
2022-08-23T09:56:32.314Z,191.7
2022-08-23T09:57:32.066Z,214.7
2022-08-23T09:58:32.095Z,206.38
2022-08-23T09:59:32.074Z,182.15
2022-08-23T10:00:32.069Z,178.24
2022-08-23T10:01:36.721Z,181.3
2022-08-23T10:02:32.135Z,196.84
2022-08-23T10:03:32.101Z,162.58
2022-08-23T10:04:32.145Z,161.73
2022-08-23T10:05:32.062Z,169.56
2022-08-23T10:06:32.092Z,170.9
2022-08-23T10:07:32.087Z,174.33
2022-08-23T10:08:32.048Z,164.29
2022-08-23T10:09:32.062Z,163.07
2022-08-23T10:10:32.049Z,193.9
2022-08-23T10:11:32.058Z,170.9
2022-08-23T10:12:32.056Z,177.39
2022-08-23T10:13:32.093Z,170.05
2022-08-23T10:14:32.093Z,153.53
2022-08-23T10:15:36.089Z,153.9
2022-08-23T10:16:32.100Z,154.39
2022-08-23T10:17:32.093Z,151.33
2022-08-23T10:18:32.061Z,148.27
2022-08-23T10:19:32.090Z,151.82
2022-08-23T10:20:32.239Z,154.75
2022-08-23T10:21:32.106Z,153.9
2022-08-23T10:22:32.075Z,150.96
2022-08-23T10:23:32.103Z,149.61
2022-08-23T10:24:32.062Z,143.99
2022-08-23T10:25:32.048Z,141.42
2022-08-23T10:26:32.066Z,140.93
2022-08-23T10:27:32.087Z,142.64
2022-08-23T10:28:35.697Z,145.7
2022-08-23T10:29:32.071Z,151.82
2022-08-23T10:30:32.076Z,153.9
2022-08-23T10:31:32.176Z,156.1
2022-08-23T10:32:32.086Z,156.59
2022-08-23T10:33:32.051Z,154.39
2022-08-23T10:34:32.090Z,152.68
2022-08-23T10:35:32.093Z,149.12
2022-08-23T10:36:32.063Z,146.19
2022-08-23T10:37:32.073Z,145.21
2022-08-23T10:38:32.057Z,146.56
2022-08-23T10:39:32.053Z,140.07
2022-08-23T10:40:32.111Z,131.88
2022-08-23T10:41:32.126Z,124.41
2022-08-23T10:42:32.089Z,115.73
2022-08-23T10:43:32.101Z,111.82
2022-08-23T10:44:32.056Z,115.36
2022-08-23T10:45:32.084Z,118.78
2022-08-23T10:46:32.201Z,124.41
2022-08-23T10:47:32.061Z,123.56
2022-08-23T10:48:32.045Z,116.58
2022-08-23T10:49:32.074Z,110.59
2022-08-23T10:50:32.061Z,105.33
2022-08-23T10:51:32.379Z,104.96
2022-08-23T10:52:32.098Z,102.27
2022-08-23T10:53:32.084Z,99.7
2022-08-23T10:54:32.103Z,94.56
2022-08-23T10:55:32.071Z,94.07
2022-08-23T10:56:32.089Z,97.5
2022-08-23T10:57:32.049Z,105.33
2022-08-23T10:58:32.069Z,116.22
2022-08-23T10:59:32.127Z,123.19
2022-08-23T11:00:32.051Z,129.68
2022-08-23T11:01:32.139Z,133.1
2022-08-23T11:02:32.122Z,136.65
2022-08-23T11:03:32.079Z,138.73
2022-08-23T11:04:32.063Z,138.36
2022-08-23T11:05:32.065Z,135.67
2022-08-23T11:06:32.072Z,129.68
2022-08-23T11:07:32.063Z,124.41
2022-08-23T11:08:32.035Z,123.19
2022-08-23T11:09:32.053Z,123.56
2022-08-23T11:10:32.087Z,125.76
2022-08-23T11:11:32.049Z,131.39
2022-08-23T11:12:32.075Z,133.95
2022-08-23T11:13:32.066Z,132.24
2022-08-23T11:14:32.087Z,126.12
2022-08-23T11:15:32.118Z,120.5
2022-08-23T11:16:32.050Z,118.42
2022-08-23T11:17:32.081Z,113.65
2022-08-23T11:18:33.321Z,111.44
2022-08-23T11:19:32.092Z,109.73
2022-08-23T11:20:32.059Z,109.24
2022-08-23T11:21:32.099Z,110.96
2022-08-23T11:22:32.087Z,113.16
2022-08-23T11:23:32.155Z,111.82
2022-08-23T11:24:32.098Z,112.67
2022-08-23T11:25:32.118Z,113.65
2022-08-23T11:26:32.056Z,114.02
2022-08-23T11:27:32.082Z,114.51
2022-08-23T11:28:32.057Z,114.51
2022-08-23T11:29:32.080Z,113.65
2022-08-23T11:30:32.308Z,114.51
2022-08-23T11:31:32.062Z,116.22
2022-08-23T11:32:32.069Z,111.82
2022-08-23T11:33:32.090Z,104.1
2022-08-23T11:34:32.150Z,97.13
2022-08-23T11:35:32.124Z,92.36
2022-08-23T11:36:32.051Z,88.45
2022-08-23T11:37:32.168Z,85.02
2022-08-23T11:38:32.063Z,78.05
2022-08-23T11:39:32.076Z,73.65
2022-08-23T11:40:32.099Z,71.93
2022-08-23T11:41:32.087Z,69.73
2022-08-23T11:42:32.234Z,67.65
2022-08-23T11:43:32.084Z,64.96
2022-08-23T11:44:32.030Z,62.88
2022-08-23T11:45:32.063Z,63.24
2022-08-23T11:46:32.281Z,63.24
2022-08-23T11:47:32.071Z,64.96
2022-08-23T11:48:32.064Z,67.65
2022-08-23T11:49:32.088Z,67.65
2022-08-23T11:50:32.111Z,68.51
2022-08-23T11:51:32.064Z,68.02
2022-08-23T11:52:32.039Z,68.02
2022-08-23T11:53:32.081Z,69.73
2022-08-23T11:54:32.065Z,73.65
2022-08-23T11:55:32.057Z,80.62
2022-08-23T11:56:32.039Z,88.45
2022-08-23T11:57:32.059Z,92.36
2022-08-23T11:58:32.090Z,94.56
2022-08-23T11:59:32.090Z,94.93
2022-08-23T12:00:32.070Z,92.36
2022-08-23T12:01:32.088Z,92.36
2022-08-23T12:02:32.241Z,91.87
2022-08-23T12:03:32.232Z,88.45
2022-08-23T12:04:32.039Z,84.53
2022-08-23T12:05:32.042Z,81.97
2022-08-23T12:06:32.195Z,78.9
2022-08-23T12:07:32.192Z,77.19
2022-08-23T12:08:32.072Z,78.05
2022-08-23T12:09:32.046Z,77.19
2022-08-23T12:10:32.064Z,74.5
2022-08-23T12:11:32.058Z,69.36
2022-08-23T12:12:36.190Z,66.31
2022-08-23T12:13:32.077Z,66.31
2022-08-23T12:14:32.080Z,66.31
2022-08-23T12:15:32.213Z,71.07
2022-08-23T12:16:32.030Z,68.51
2022-08-23T12:17:32.083Z,71.56
2022-08-23T12:18:32.047Z,77.19
2022-08-23T12:19:34.025Z,81.97
2022-08-23T12:20:32.057Z,86.24
2022-08-23T12:21:32.089Z,87.96
2022-08-23T12:22:32.089Z,89.31
2022-08-23T12:23:32.045Z,93.22
2022-08-23T12:24:32.346Z,97.13
2022-08-23T12:25:32.163Z,98.85
2022-08-23T12:26:32.065Z,98.36
2022-08-23T12:27:32.064Z,96.65
2022-08-23T12:28:32.098Z,97.5
2022-08-23T12:29:32.073Z,99.34
2022-08-23T12:30:32.059Z,96.65
2022-08-23T12:31:32.135Z,90.16
2022-08-23T12:32:34.126Z,83.68
2022-08-23T12:33:34.742Z,83.19
2022-08-23T12:34:38.649Z,80.62
2022-08-23T12:35:42.679Z,75.48
2022-08-23T12:36:46.676Z,68.02
2022-08-23T12:37:51.496Z,63.73
2022-08-23T12:38:54.699Z,59.82
2022-08-23T12:39:58.729Z,55.9
2022-08-23T12:41:02.677Z,51.14
2022-08-23T12:42:06.946Z,48.93
2022-08-23T12:43:10.631Z,48.07
2022-08-23T12:44:14.645Z,45.87
2022-08-23T12:45:18.657Z,45.02
2022-08-23T12:46:22.760Z,45.02
2022-08-23T12:47:26.658Z,45.02
2022-08-23T12:48:30.841Z,42.94
2022-08-23T12:49:32.040Z,42.94
2022-08-23T12:50:33.118Z,40.73
2022-08-23T12:51:32.069Z,39.02
2022-08-23T12:52:32.321Z,38.17
2022-08-23T12:53:32.031Z,37.68
2022-08-23T12:54:32.130Z,38.17
2022-08-23T12:55:32.208Z,38.17
2022-08-23T12:56:32.576Z,37.68
2022-08-23T12:57:32.038Z,35.48
2022-08-23T12:58:33.561Z,33.76
2022-08-23T12:59:32.072Z,34.62
2022-08-23T13:00:32.073Z,34.62
2022-08-23T13:01:32.129Z,36.82
2022-08-23T13:02:32.257Z,39.39
2022-08-23T13:03:32.047Z,42.94
2022-08-23T13:04:32.284Z,47.71
2022-08-23T13:05:32.047Z,51.14
2022-08-23T13:06:32.060Z,56.27
2022-08-23T13:07:32.103Z,61.17
2022-08-23T13:08:34.333Z,63.73
2022-08-23T13:09:32.036Z,62.39
2022-08-23T13:10:32.057Z,58.97
2022-08-23T13:11:32.028Z,55.41
2022-08-23T13:12:32.087Z,53.7
2022-08-23T13:13:32.082Z,54.19
2022-08-23T13:14:32.060Z,55.05
2022-08-23T13:15:32.124Z,56.76
2022-08-23T13:16:32.051Z,58.48
2022-08-23T13:17:32.037Z,58.97
2022-08-23T13:18:32.060Z,59.82
2022-08-23T13:19:32.173Z,58.97